Time;durP1;ratioP1;P1;durP2;ratioP2;P2;SDS_P1;SDS_P2;PMS_P1;PMS_P2;Temp;Humidity;BMP_temperature;BMP_pressure;BME280_temperature;BME280_humidity;BME280_pressure;Samples;Min_cycle;Max_cycle;Signal;HPM_P1;HPM_P2
2023/09/14 00:01:32;;;;;;;4.25;3.00;;;15.80;99.90;;;;;;5079054;28;20426;-67
2023/09/14 00:03:59;;;;;;;4.78;2.90;;;15.80;99.90;;;;;;5077087;28;20514;-71
2023/09/14 00:06:27;;;;;;;3.90;2.88;;;15.70;99.90;;;;;;5080215;28;20431;-70
2023/09/14 00:08:54;;;;;;;3.35;3.00;;;15.70;99.90;;;;;;5078193;28;20921;-69
2023/09/14 00:11:21;;;;;;;4.23;2.80;;;15.70;99.90;;;;;;5074044;28;20427;-69
2023/09/14 00:13:48;;;;;;;4.85;2.90;;;15.70;99.90;;;;;;5086337;28;20425;-70
2023/09/14 00:16:14;;;;;;;3.92;2.70;;;15.70;99.90;;;;;;5076773;28;20439;-69
2023/09/14 00:18:41;;;;;;;3.40;2.60;;;15.70;99.90;;;;;;5082515;28;20432;-71
2023/09/14 00:21:08;;;;;;;4.50;3.00;;;15.60;99.90;;;;;;5077631;28;20447;-69
2023/09/14 00:23:36;;;;;;;3.83;2.40;;;15.60;99.90;;;;;;5077256;28;20429;-70
2023/09/14 00:26:03;;;;;;;3.92;2.58;;;15.60;99.90;;;;;;5074521;28;20435;-69
2023/09/14 00:28:30;;;;;;;3.78;2.70;;;15.60;99.90;;;;;;5071231;28;20834;-69
2023/09/14 00:30:57;;;;;;;3.83;2.58;;;15.60;99.90;;;;;;5083191;28;20936;-70
2023/09/14 00:33:24;;;;;;;3.38;2.20;;;15.60;99.90;;;;;;5072660;28;20452;-69
2023/09/14 00:35:51;;;;;;;3.85;2.20;;;15.60;99.90;;;;;;5073825;28;20433;-69
2023/09/14 00:38:18;;;;;;;4.80;2.70;;;15.60;99.90;;;;;;5082377;28;20458;-69
2023/09/14 00:40:46;;;;;;;3.25;2.60;;;15.50;99.90;;;;;;5078269;28;20493;-70
2023/09/14 00:43:13;;;;;;;4.45;2.53;;;15.50;99.90;;;;;;5076681;28;20988;-71
2023/09/14 00:45:41;;;;;;;3.63;2.50;;;15.50;99.90;;;;;;5084994;28;21000;-69
2023/09/14 00:48:08;;;;;;;4.00;2.80;;;15.50;99.90;;;;;;5069693;28;20429;-69
2023/09/14 00:50:35;;;;;;;3.10;2.33;;;15.50;99.90;;;;;;5066400;28;20438;-69
2023/09/14 00:53:05;;;;;;;3.20;2.75;;;15.40;99.90;;;;;;5073510;28;20809;-70
2023/09/14 00:55:32;;;;;;;4.95;2.70;;;15.50;99.90;;;;;;5066907;28;20425;-70
2023/09/14 00:58:00;;;;;;;3.90;2.50;;;15.40;99.90;;;;;;5061076;28;20432;-68
2023/09/14 01:00:28;;;;;;;5.40;2.58;;;15.40;99.90;;;;;;5075598;28;20427;-69
2023/09/14 01:02:56;;;;;;;5.72;2.60;;;15.40;99.90;;;;;;5069487;28;20432;-69
2023/09/14 01:05:24;;;;;;;4.27;2.70;;;15.30;99.90;;;;;;5069083;28;20522;-70
2023/09/14 01:07:50;;;;;;;5.15;2.70;;;15.30;99.90;;;;;;5062064;28;20827;-70
2023/09/14 01:10:17;;;;;;;3.70;2.35;;;15.30;99.90;;;;;;5074922;28;20427;-69
2023/09/14 01:12:46;;;;;;;4.90;2.88;;;15.30;99.90;;;;;;5074177;28;20410;-70
2023/09/14 01:15:21;;;;;;;3.60;2.60;;;15.30;99.90;;;;;;5080829;28;20480;-71
2023/09/14 01:17:59;;;;;;;4.30;2.60;;;15.30;99.90;;;;;;5074751;28;20437;-69
2023/09/14 01:20:56;;;;;;;4.13;2.85;;;15.30;99.90;;;;;;5067129;28;21013;-71
2023/09/14 01:23:32;;;;;;;4.25;2.53;;;15.30;99.90;;;;;;5075898;28;20428;-70
2023/09/14 01:26:01;;;;;;;4.35;2.72;;;15.30;99.90;;;;;;5070000;28;20431;-70
2023/09/14 01:28:28;;;;;;;4.32;2.40;;;15.30;99.90;;;;;;5062648;28;20532;-69
2023/09/14 01:30:55;;;;;;;4.50;2.40;;;15.30;99.90;;;;;;5066519;28;20826;-70
2023/09/14 01:33:25;;;;;;;5.15;2.40;;;15.20;99.90;;;;;;5064477;28;20448;-70
2023/09/14 01:35:57;;;;;;;4.88;2.70;;;15.20;99.90;;;;;;5064905;28;20824;-69
2023/09/14 01:38:24;;;;;;;4.35;2.63;;;15.20;99.90;;;;;;5068456;28;20442;-69
2023/09/14 01:40:52;;;;;;;5.45;3.00;;;15.20;99.90;;;;;;5061238;28;20436;-70
2023/09/14 01:43:21;;;;;;;5.07;2.72;;;15.20;99.90;;;;;;5079716;28;20893;-69
2023/09/14 01:45:48;;;;;;;4.35;2.70;;;15.20;99.90;;;;;;5073426;28;20437;-70
2023/09/14 01:48:16;;;;;;;4.45;2.70;;;15.20;99.90;;;;;;5077649;28;20410;-71
2023/09/14 01:50:43;;;;;;;5.80;2.65;;;15.20;99.90;;;;;;5069383;28;20471;-69
2023/09/14 01:53:10;;;;;;;5.03;3.00;;;15.20;99.90;;;;;;5067857;28;20485;-69
2023/09/14 01:55:37;;;;;;;3.80;3.00;;;15.20;99.90;;;;;;5065241;28;20422;-68
2023/09/14 01:58:04;;;;;;;5.68;3.00;;;15.20;99.90;;;;;;5061575;28;20518;-69
2023/09/14 02:00:33;;;;;;;4.40;2.85;;;15.20;99.90;;;;;;5062318;28;20453;-70
2023/09/14 02:02:59;;;;;;;6.15;2.55;;;15.10;99.90;;;;;;5069197;28;20431;-71
2023/09/14 02:05:26;;;;;;;5.13;2.83;;;15.10;99.90;;;;;;5067842;28;20454;-70
2023/09/14 02:07:53;;;;;;;5.95;3.60;;;15.10;99.90;;;;;;5063709;28;20508;-69
2023/09/14 02:10:21;;;;;;;5.32;3.05;;;15.10;99.90;;;;;;5065420;28;20437;-69
2023/09/14 02:12:48;;;;;;;4.90;3.03;;;15.00;99.90;;;;;;5065494;28;21058;-69
2023/09/14 02:15:15;;;;;;;4.45;3.20;;;15.00;99.90;;;;;;5062737;28;20443;-68
2023/09/14 02:17:43;;;;;;;4.15;2.95;;;15.00;99.90;;;;;;5068821;28;20431;-69
2023/09/14 02:20:11;;;;;;;4.43;3.50;;;15.00;99.90;;;;;;5099706;22;20547;-74
2023/09/14 02:22:38;;;;;;;3.50;2.80;;;15.00;99.90;;;;;;5075814;28;20437;-75
2023/09/14 02:25:05;;;;;;;3.85;3.10;;;14.90;99.90;;;;;;5078189;28;20437;-73
2023/09/14 02:27:32;;;;;;;4.63;3.73;;;14.90;99.90;;;;;;5082854;28;20876;-73
2023/09/14 02:29:59;;;;;;;5.60;3.60;;;14.90;99.90;;;;;;5081125;28;20491;-72
2023/09/14 02:32:26;;;;;;;5.15;3.30;;;14.90;99.90;;;;;;5074131;28;20434;-73
2023/09/14 02:34:54;;;;;;;5.30;3.10;;;14.90;99.90;;;;;;5075398;28;20433;-73
2023/09/14 02:37:20;;;;;;;6.13;3.42;;;14.90;99.90;;;;;;5078982;28;21982;-73
2023/09/14 02:39:47;;;;;;;6.10;3.13;;;14.90;99.90;;;;;;5082049;28;20430;-72
2023/09/14 02:42:14;;;;;;;4.30;3.10;;;14.80;99.90;;;;;;5080563;28;20437;-72
2023/09/14 02:44:40;;;;;;;4.70;3.40;;;14.90;99.90;;;;;;5074732;28;20439;-73
2023/09/14 02:47:07;;;;;;;3.67;3.20;;;14.80;99.90;;;;;;5076631;28;20449;-73
2023/09/14 02:49:34;;;;;;;5.10;3.10;;;14.90;99.90;;;;;;5079228;28;20437;-73
2023/09/14 02:52:02;;;;;;;4.72;3.42;;;14.90;99.90;;;;;;5073385;28;20503;-73
2023/09/14 02:54:29;;;;;;;5.70;3.47;;;14.90;99.90;;;;;;5075658;28;20430;-73
2023/09/14 02:56:55;;;;;;;3.37;3.07;;;14.90;99.90;;;;;;5073815;28;20591;-73
2023/09/14 02:59:22;;;;;;;4.82;3.33;;;14.90;99.90;;;;;;5075043;28;20440;-73
2023/09/14 03:01:49;;;;;;;3.90;3.50;;;14.90;99.90;;;;;;5077541;28;20441;-72
2023/09/14 03:04:16;;;;;;;4.40;3.30;;;14.80;99.90;;;;;;5077257;28;20533;-75
2023/09/14 03:06:43;;;;;;;4.65;3.28;;;14.80;99.90;;;;;;5076946;28;20440;-73
2023/09/14 03:09:11;;;;;;;6.10;4.00;;;14.80;99.90;;;;;;5080848;28;20441;-73
2023/09/14 03:11:38;;;;;;;5.22;3.40;;;14.70;99.90;;;;;;5077847;28;20530;-72
2023/09/14 03:14:04;;;;;;;4.68;3.38;;;14.70;99.90;;;;;;5080052;28;20432;-73
2023/09/14 03:16:31;;;;;;;5.63;3.90;;;14.60;99.90;;;;;;5074766;28;20430;-73
2023/09/14 03:18:58;;;;;;;4.50;3.50;;;14.60;99.90;;;;;;5074895;28;20439;-72
2023/09/14 03:21:27;;;;;;;4.28;3.70;;;14.60;99.90;;;;;;5079564;28;20449;-72
2023/09/14 03:23:53;;;;;;;4.55;3.78;;;14.60;99.90;;;;;;5082178;28;20823;-73
2023/09/14 03:26:23;;;;;;;5.68;3.92;;;14.50;99.90;;;;;;5079716;28;20542;-74
2023/09/14 03:28:51;;;;;;;4.38;3.60;;;14.50;99.90;;;;;;5081078;28;20471;-75
2023/09/14 03:31:18;;;;;;;7.20;3.90;;;14.40;99.90;;;;;;5081873;28;20902;-73
2023/09/14 03:33:47;;;;;;;5.25;3.78;;;14.40;99.90;;;;;;5079395;28;20445;-73
2023/09/14 03:36:14;;;;;;;4.10;3.50;;;14.40;99.90;;;;;;5076632;28;20423;-73
2023/09/14 03:38:41;;;;;;;6.05;3.97;;;14.40;99.90;;;;;;5081316;28;20448;-73
2023/09/14 03:41:07;;;;;;;4.65;3.83;;;14.40;99.90;;;;;;5082331;28;20923;-73
2023/09/14 03:43:35;;;;;;;5.82;4.15;;;14.40;99.90;;;;;;5081222;28;20438;-74
2023/09/14 03:46:02;;;;;;;4.82;3.60;;;14.30;99.90;;;;;;5080041;28;20485;-74
2023/09/14 03:48:29;;;;;;;3.90;3.60;;;14.30;99.90;;;;;;5077933;28;20438;-74
2023/09/14 03:50:58;;;;;;;4.13;3.40;;;14.30;99.90;;;;;;5075449;28;20536;-73
2023/09/14 03:53:25;;;;;;;5.18;3.80;;;14.20;99.90;;;;;;5076536;28;20932;-74
2023/09/14 03:55:52;;;;;;;5.53;3.72;;;14.20;99.90;;;;;;5080995;28;20422;-73
2023/09/14 03:58:19;;;;;;;5.10;4.00;;;14.20;99.90;;;;;;5082377;28;20430;-74
2023/09/14 04:00:47;;;;;;;6.50;4.20;;;14.20;99.90;;;;;;5077572;28;20897;-73
2023/09/14 04:03:14;;;;;;;4.50;3.90;;;14.10;99.90;;;;;;5079670;28;20442;-74
2023/09/14 04:05:40;;;;;;;3.70;3.40;;;14.10;99.90;;;;;;5080935;28;20816;-74
2023/09/14 04:08:08;;;;;;;4.43;3.80;;;14.10;99.90;;;;;;5081063;28;20432;-73
2023/09/14 04:10:37;;;;;;;4.88;3.90;;;14.00;99.90;;;;;;5078306;28;20884;-73
2023/09/14 04:13:26;;;;;;;5.15;4.22;;;14.00;99.90;;;;;;5076367;28;20433;-73
2023/09/14 04:15:55;;;;;;;4.87;3.83;;;14.10;99.90;;;;;;5084283;28;20518;-74
2023/09/14 04:18:22;;;;;;;5.43;4.30;;;14.00;99.90;;;;;;5079579;28;20525;-74
2023/09/14 04:20:49;;;;;;;6.23;4.17;;;14.00;99.90;;;;;;5083649;28;20573;-73
2023/09/14 04:23:16;;;;;;;6.03;4.00;;;14.00;99.90;;;;;;5078609;28;20765;-74
2023/09/14 04:25:44;;;;;;;5.47;4.55;;;13.90;99.90;;;;;;5080199;28;20430;-74
2023/09/14 04:28:12;;;;;;;5.30;4.60;;;13.90;99.90;;;;;;5077359;28;20902;-74
2023/09/14 04:30:43;;;;;;;5.47;4.57;;;13.90;99.90;;;;;;5077361;28;20503;-74
2023/09/14 04:33:11;;;;;;;5.38;4.25;;;13.90;99.90;;;;;;5078983;28;20492;-74
2023/09/14 04:35:38;;;;;;;4.70;4.30;;;13.90;99.90;;;;;;5080481;28;20448;-74
2023/09/14 04:38:05;;;;;;;6.93;4.87;;;13.90;99.90;;;;;;5082250;28;20433;-74
2023/09/14 04:40:32;;;;;;;6.13;4.85;;;13.90;99.90;;;;;;5080443;28;20469;-73
2023/09/14 04:43:00;;;;;;;5.82;5.32;;;13.80;99.90;;;;;;5082211;28;20433;-74
2023/09/14 04:45:26;;;;;;;7.45;5.10;;;13.80;99.90;;;;;;5076442;28;20431;-74
2023/09/14 04:47:53;;;;;;;8.43;5.70;;;13.80;99.90;;;;;;5082329;28;20456;-73
2023/09/14 04:50:21;;;;;;;6.07;5.55;;;13.80;99.90;;;;;;5080322;28;20429;-74
2023/09/14 04:52:48;;;;;;;6.13;5.50;;;13.80;99.90;;;;;;5077927;28;20481;-74
2023/09/14 04:55:14;;;;;;;6.07;5.47;;;13.80;99.90;;;;;;5082443;28;20783;-74
2023/09/14 04:57:41;;;;;;;6.43;5.50;;;13.70;99.90;;;;;;5079951;28;20418;-74
2023/09/14 05:00:10;;;;;;;8.17;5.90;;;13.80;99.90;;;;;;5076168;28;20528;-67
2023/09/14 05:02:37;;;;;;;8.20;7.30;;;13.80;99.90;;;;;;5079281;28;20582;-65
2023/09/14 05:05:04;;;;;;;7.60;6.90;;;13.80;99.90;;;;;;5077526;28;20450;-68
2023/09/14 05:07:32;;;;;;;9.05;8.15;;;13.90;99.90;;;;;;5075833;28;20462;-68
2023/09/14 05:09:59;;;;;;;14.07;12.10;;;13.90;99.90;;;;;;5075992;28;20426;-72
2023/09/14 05:12:25;;;;;;;12.25;10.95;;;14.00;99.90;;;;;;5078053;28;20541;-73
2023/09/14 05:14:52;;;;;;;13.05;11.77;;;14.10;99.90;;;;;;5073366;28;20436;-73
2023/09/14 05:17:19;;;;;;;14.02;12.63;;;14.10;99.90;;;;;;5070494;28;21117;-73
2023/09/14 05:19:46;;;;;;;12.60;11.40;;;14.20;99.90;;;;;;5081007;28;20508;-72
2023/09/14 05:22:12;;;;;;;13.55;12.15;;;14.20;99.90;;;;;;5072487;28;20433;-72
2023/09/14 05:24:41;;;;;;;14.00;12.60;;;14.30;99.90;;;;;;5076321;28;20974;-72
2023/09/14 05:27:08;;;;;;;15.05;13.48;;;14.30;99.90;;;;;;5075154;28;20510;-72
2023/09/14 05:29:34;;;;;;;14.00;12.55;;;14.30;99.90;;;;;;5072566;28;20442;-71
2023/09/14 05:32:02;;;;;;;14.00;12.60;;;14.30;99.90;;;;;;5076619;28;20509;-71
2023/09/14 05:34:29;;;;;;;13.38;11.98;;;14.30;99.90;;;;;;5077826;28;20430;-72
2023/09/14 05:36:56;;;;;;;13.13;11.93;;;14.30;99.90;;;;;;5075964;28;20449;-71
2023/09/14 05:39:22;;;;;;;13.23;11.82;;;14.30;99.90;;;;;;5075960;28;20565;-72
2023/09/14 05:41:50;;;;;;;13.88;12.65;;;14.30;99.90;;;;;;5073936;28;20423;-73
2023/09/14 05:44:17;;;;;;;14.13;12.73;;;14.30;99.90;;;;;;5073292;28;20977;-73
2023/09/14 05:46:44;;;;;;;13.85;12.55;;;14.30;99.90;;;;;;5080334;28;20468;-73
2023/09/14 05:49:11;;;;;;;14.25;12.88;;;14.20;99.90;;;;;;5073153;28;20896;-73
2023/09/14 05:51:37;;;;;;;14.10;12.70;;;14.30;99.90;;;;;;5082214;28;20991;-73
2023/09/14 05:54:04;;;;;;;16.55;14.77;;;14.30;99.90;;;;;;5077259;28;20426;-73
2023/09/14 05:56:32;;;;;;;18.23;16.33;;;14.30;99.90;;;;;;5077978;28;20433;-74
2023/09/14 05:59:01;;;;;;;20.75;18.55;;;14.40;99.90;;;;;;5075734;28;20413;-73
2023/09/14 06:01:27;;;;;;;20.83;18.83;;;14.40;99.90;;;;;;5081954;28;20960;-74
2023/09/14 06:03:54;;;;;;;18.60;16.80;;;14.40;99.90;;;;;;5079708;28;20544;-74
2023/09/14 06:06:21;;;;;;;19.20;17.30;;;14.30;99.90;;;;;;5069811;28;20506;-74
2023/09/14 06:08:47;;;;;;;18.23;16.43;;;14.30;99.90;;;;;;5079823;28;20887;-73
2023/09/14 06:11:14;;;;;;;15.88;14.38;;;14.30;99.90;;;;;;5080099;28;20429;-73
2023/09/14 06:13:41;;;;;;;13.95;12.50;;;14.40;99.90;;;;;;5075831;28;20435;-73
2023/09/14 06:16:09;;;;;;;15.07;13.63;;;14.40;99.90;;;;;;5082623;28;20763;-74
2023/09/14 06:18:36;;;;;;;14.93;13.52;;;14.50;99.90;;;;;;5075550;28;20426;-73
2023/09/14 06:21:02;;;;;;;15.13;13.47;;;14.50;99.90;;;;;;5077266;28;21047;-74
2023/09/14 06:23:29;;;;;;;13.73;12.43;;;14.60;99.90;;;;;;5074586;28;20505;-74
2023/09/14 06:25:56;;;;;;;16.52;14.82;;;14.60;99.90;;;;;;5071949;28;20442;-74
2023/09/14 06:28:22;;;;;;;15.70;14.20;;;14.70;99.90;;;;;;5080398;28;20430;-74
2023/09/14 06:30:49;;;;;;;15.57;14.07;;;14.70;99.90;;;;;;5076921;28;20521;-74
2023/09/14 06:33:17;;;;;;;14.63;13.13;;;14.70;99.90;;;;;;5069091;28;20531;-74
2023/09/14 06:35:44;;;;;;;13.90;12.60;;;14.80;99.90;;;;;;5065516;28;20584;-74
2023/09/14 06:38:11;;;;;;;15.40;13.98;;;14.80;99.90;;;;;;5075906;28;20753;-74
2023/09/14 06:40:37;;;;;;;14.73;13.35;;;14.80;99.90;;;;;;5076676;28;20440;-74
2023/09/14 06:43:04;;;;;;;14.40;13.10;;;14.90;99.90;;;;;;5075754;28;20452;-74
2023/09/14 06:45:33;;;;;;;14.70;13.30;;;14.90;99.90;;;;;;5075570;28;20499;-74
2023/09/14 06:47:59;;;;;;;15.10;13.80;;;14.80;99.90;;;;;;5070580;28;20434;-74
2023/09/14 06:50:27;;;;;;;15.13;13.38;;;14.80;99.90;;;;;;5074254;28;20528;-74
2023/09/14 06:52:54;;;;;;;13.38;12.27;;;14.90;99.90;;;;;;5075906;28;20884;-74
2023/09/14 06:55:21;;;;;;;13.50;12.27;;;14.90;99.90;;;;;;5075535;28;20426;-74
2023/09/14 06:57:47;;;;;;;13.88;12.57;;;14.90;99.90;;;;;;5070987;28;20431;-74
2023/09/14 07:00:16;;;;;;;17.73;16.13;;;14.80;99.90;;;;;;5073360;28;20451;-74
2023/09/14 07:02:44;;;;;;;16.48;15.07;;;14.80;99.90;;;;;;5077131;28;20516;-74
2023/09/14 07:05:11;;;;;;;17.55;15.85;;;14.80;99.90;;;;;;5077376;28;20426;-74
2023/09/14 07:07:39;;;;;;;20.17;18.17;;;14.80;99.90;;;;;;5073458;28;20425;-74
2023/09/14 07:10:07;;;;;;;22.25;20.25;;;14.80;99.90;;;;;;5080072;28;21118;-74
2023/09/14 07:12:34;;;;;;;25.50;23.20;;;14.80;99.90;;;;;;5068747;28;20864;-74
2023/09/14 07:15:01;;;;;;;25.20;23.00;;;14.80;99.90;;;;;;5080051;28;20437;-74
2023/09/14 07:17:27;;;;;;;27.77;25.08;;;14.80;99.90;;;;;;5074849;28;20458;-72
2023/09/14 07:19:54;;;;;;;27.45;24.85;;;14.90;99.90;;;;;;5079605;28;20429;-74
2023/09/14 07:22:21;;;;;;;25.98;23.38;;;14.90;99.90;;;;;;5069832;28;20426;-74
2023/09/14 07:24:49;;;;;;;26.30;23.70;;;14.90;99.90;;;;;;5074293;28;20449;-74
2023/09/14 07:27:16;;;;;;;26.05;23.75;;;15.00;99.90;;;;;;5075612;28;20452;-74
2023/09/14 07:29:44;;;;;;;27.65;25.00;;;15.00;99.90;;;;;;5077725;28;20917;-74
2023/09/14 07:32:11;;;;;;;27.27;24.67;;;15.10;99.90;;;;;;5072019;28;20508;-75
2023/09/14 07:34:37;;;;;;;28.83;26.20;;;15.10;99.90;;;;;;5076510;28;20457;-75
2023/09/14 07:37:04;;;;;;;31.13;28.20;;;15.10;99.90;;;;;;5079844;28;20444;-74
2023/09/14 07:39:31;;;;;;;30.13;27.23;;;15.20;99.90;;;;;;5075474;28;20563;-74
2023/09/14 07:41:59;;;;;;;31.88;28.98;;;15.20;99.90;;;;;;5067278;28;20427;-74
2023/09/14 07:44:26;;;;;;;32.28;29.10;;;15.20;99.90;;;;;;5078278;28;20947;-75
2023/09/14 07:46:52;;;;;;;30.93;28.03;;;15.20;99.90;;;;;;5077811;28;20507;-75
2023/09/14 07:49:19;;;;;;;33.23;30.03;;;15.20;99.90;;;;;;5075126;28;20502;-75
2023/09/14 07:51:46;;;;;;;30.70;27.80;;;15.30;99.90;;;;;;5072425;28;20432;-74
2023/09/14 07:54:13;;;;;;;30.90;27.90;;;15.30;99.90;;;;;;5081286;28;20437;-75
2023/09/14 07:56:40;;;;;;;30.77;27.85;;;15.40;99.90;;;;;;5072590;28;20516;-74
2023/09/14 07:59:08;;;;;;;31.67;28.55;;;15.50;99.90;;;;;;5065940;28;20435;-74
2023/09/14 08:01:34;;;;;;;32.42;29.42;;;15.50;99.90;;;;;;5077727;28;20431;-75
2023/09/14 08:04:03;;;;;;;31.80;28.80;;;15.50;99.90;;;;;;5077383;28;20433;-74
2023/09/14 08:06:30;;;;;;;35.72;32.33;;;15.50;99.90;;;;;;5076078;28;20445;-74
2023/09/14 08:08:56;;;;;;;33.47;30.37;;;15.50;99.90;;;;;;5078554;28;20489;-74
2023/09/14 08:11:24;;;;;;;34.17;31.08;;;15.50;99.90;;;;;;5083086;28;20414;-74
2023/09/14 08:13:50;;;;;;;34.40;30.92;;;15.50;99.90;;;;;;5073825;28;20552;-74
2023/09/14 08:16:18;;;;;;;34.50;31.20;;;15.50;99.90;;;;;;5076485;28;20422;-74
2023/09/14 08:18:45;;;;;;;32.63;29.50;;;15.60;99.90;;;;;;5088855;22;20694;-67
2023/09/14 08:21:12;;;;;;;32.80;29.60;;;15.60;99.90;;;;;;5051074;28;20437;-68
2023/09/14 08:23:38;;;;;;;32.22;29.20;;;15.70;99.90;;;;;;5055300;28;20435;-67
2023/09/14 08:26:06;;;;;;;33.50;30.40;;;15.70;99.90;;;;;;5050663;28;21107;-67
2023/09/14 08:28:33;;;;;;;32.28;29.38;;;15.80;99.90;;;;;;5062899;28;20428;-68
2023/09/14 08:30:59;;;;;;;31.50;28.55;;;15.80;99.90;;;;;;5064292;28;20434;-69
2023/09/14 08:33:29;;;;;;;32.63;29.63;;;15.90;99.90;;;;;;5068578;28;20435;-67
2023/09/14 08:35:56;;;;;;;34.17;31.08;;;16.00;99.90;;;;;;5063246;28;20808;-69
2023/09/14 08:38:25;;;;;;;33.75;30.65;;;16.10;99.90;;;;;;5066677;28;20797;-68
2023/09/14 08:40:54;;;;;;;34.88;31.52;;;16.10;99.90;;;;;;5069615;28;20423;-69
2023/09/14 08:43:21;;;;;;;31.48;28.65;;;16.10;99.90;;;;;;5072124;28;20453;-68
2023/09/14 08:45:50;;;;;;;30.40;27.65;;;16.20;99.90;;;;;;5068084;28;20909;-69
2023/09/14 08:48:21;;;;;;;30.02;27.33;;;16.30;99.90;;;;;;5065442;28;20518;-68
2023/09/14 08:50:50;;;;;;;31.13;28.52;;;16.30;99.90;;;;;;5063775;28;20476;-68
2023/09/14 08:53:17;;;;;;;29.98;27.27;;;16.40;99.90;;;;;;5066266;28;20443;-69
2023/09/14 08:55:44;;;;;;;28.90;26.30;;;16.60;99.90;;;;;;5062633;28;20958;-69
2023/09/14 08:58:13;;;;;;;28.17;25.67;;;16.70;99.90;;;;;;5069468;28;20921;-69
2023/09/14 09:00:41;;;;;;;28.38;25.88;;;16.90;99.90;;;;;;5057898;28;20592;-72
2023/09/14 09:03:08;;;;;;;26.85;24.55;;;17.00;99.90;;;;;;5064500;28;20485;-75
2023/09/14 09:05:35;;;;;;;28.40;25.90;;;17.10;99.90;;;;;;5062250;28;20444;-75
2023/09/14 09:08:03;;;;;;;26.88;24.67;;;17.20;99.90;;;;;;5063024;28;20435;-73
2023/09/14 09:10:31;;;;;;;27.00;24.70;;;17.30;99.90;;;;;;5059876;28;20464;-72
2023/09/14 09:13:00;;;;;;;26.87;24.57;;;17.40;99.90;;;;;;5061852;28;20443;-74
2023/09/14 09:15:27;;;;;;;26.70;24.50;;;17.50;99.90;;;;;;5066911;28;20432;-75
2023/09/14 09:17:55;;;;;;;26.08;23.98;;;17.60;99.90;;;;;;5068579;28;20436;-72
2023/09/14 09:20:23;;;;;;;25.60;23.50;;;17.70;99.90;;;;;;5069263;28;20431;-74
2023/09/14 09:22:51;;;;;;;23.98;22.08;;;18.00;99.90;;;;;;5076335;28;20431;-73
2023/09/14 09:25:21;;;;;;;24.15;22.25;;;18.10;99.80;;;;;;5078084;28;20436;-74
2023/09/14 09:27:48;;;;;;;23.30;21.50;;;18.40;98.40;;;;;;5075577;28;20427;-74
2023/09/14 09:30:15;;;;;;;23.50;21.70;;;18.50;98.20;;;;;;5074186;28;20432;-74
2023/09/14 09:32:42;;;;;;;22.90;21.10;;;18.70;97.50;;;;;;5060897;28;20458;-74
2023/09/14 09:35:20;;;;;;;23.05;21.23;;;18.80;96.90;;;;;;5066177;28;20427;-75
2023/09/14 09:37:47;;;;;;;22.08;20.17;;;18.90;96.20;;;;;;5059321;28;20431;-72
2023/09/14 09:40:15;;;;;;;22.10;20.42;;;18.80;96.50;;;;;;5065657;28;20431;-74
2023/09/14 09:42:44;;;;;;;21.98;20.08;;;18.90;96.70;;;;;;5069792;28;20438;-76
2023/09/14 09:45:11;;;;;;;21.63;19.90;;;19.10;96.40;;;;;;5063383;28;20797;-74
2023/09/14 09:47:38;;;;;;;20.35;18.83;;;19.20;95.50;;;;;;5061763;28;20434;-74
2023/09/14 09:50:07;;;;;;;24.52;22.42;;;19.20;95.00;;;;;;5067953;28;20771;-77
2023/09/14 09:52:35;;;;;;;19.33;17.80;;;19.10;94.90;;;;;;5067286;28;20431;-77
2023/09/14 09:55:03;;;;;;;18.23;16.77;;;19.10;95.00;;;;;;5067495;28;20436;-76
2023/09/14 09:57:31;;;;;;;19.33;17.83;;;19.40;94.70;;;;;;5066829;28;20475;-74
2023/09/14 09:59:59;;;;;;;20.40;18.90;;;19.50;93.60;;;;;;5064035;28;20838;-74
2023/09/14 10:02:31;;;;;;;17.53;16.23;;;19.60;94.00;;;;;;5063048;28;20793;-74
2023/09/14 10:04:58;;;;;;;16.45;15.15;;;19.80;92.70;;;;;;5068380;28;20829;-73
2023/09/14 10:07:25;;;;;;;16.27;14.97;;;19.90;93.40;;;;;;5066721;28;20436;-75
2023/09/14 10:09:53;;;;;;;16.03;14.83;;;20.20;92.60;;;;;;5059341;28;20433;-74
2023/09/14 10:12:24;;;;;;;14.73;13.52;;;20.20;92.10;;;;;;5059887;28;20443;-75
2023/09/14 10:14:53;;;;;;;14.32;13.02;;;20.50;91.50;;;;;;5067198;28;20455;-75
2023/09/14 10:17:23;;;;;;;13.35;12.25;;;20.90;90.30;;;;;;5066961;28;20492;-76
2023/09/14 10:19:51;;;;;;;13.50;12.40;;;20.90;89.40;;;;;;5064727;28;20427;-75
2023/09/14 10:22:19;;;;;;;14.27;13.07;;;21.10;88.40;;;;;;5062388;28;20432;-75
2023/09/14 10:24:47;;;;;;;13.00;11.95;;;21.20;86.60;;;;;;5076061;28;20427;-75
2023/09/14 10:27:15;;;;;;;13.68;12.50;;;21.30;86.70;;;;;;5090422;28;20442;-72
2023/09/14 10:29:44;;;;;;;11.48;10.57;;;21.30;84.60;;;;;;5096299;28;20418;-74
2023/09/14 10:32:12;;;;;;;11.30;10.50;;;21.30;86.40;;;;;;5090736;28;20506;-71
2023/09/14 10:34:41;;;;;;;10.50;9.50;;;21.50;85.40;;;;;;5089189;28;20488;-75
2023/09/14 10:37:10;;;;;;;10.00;9.20;;;21.70;82.30;;;;;;5069687;28;20424;-73
2023/09/14 10:39:37;;;;;;;8.93;8.13;;;21.80;82.00;;;;;;5062015;28;20427;-73
2023/09/14 10:42:05;;;;;;;8.60;7.80;;;22.00;81.90;;;;;;5067094;28;20882;-76
2023/09/14 10:44:33;;;;;;;7.40;6.80;;;22.30;78.70;;;;;;5063077;28;20442;-76
2023/09/14 10:47:03;;;;;;;8.63;8.00;;;22.40;78.70;;;;;;5063079;28;20439;-76
2023/09/14 10:49:34;;;;;;;7.30;6.70;;;22.60;78.50;;;;;;5068645;28;20777;-76
2023/09/14 10:52:02;;;;;;;6.97;6.28;;;22.70;76.80;;;;;;5068899;28;20408;-76
2023/09/14 10:54:32;;;;;;;6.80;5.80;;;22.80;73.10;;;;;;5064298;28;20442;-77
2023/09/14 10:57:00;;;;;;;6.00;5.40;;;23.10;73.40;;;;;;5064197;28;20427;-77
2023/09/14 10:59:49;;;;;;;5.50;5.00;;;23.30;72.30;;;;;;5066514;28;20442;-76
2023/09/14 11:02:52;;;;;;;5.38;4.55;;;23.50;69.80;;;;;;5064867;28;20426;-76
2023/09/14 11:05:21;;;;;;;7.10;5.65;;;23.60;68.10;;;;;;5063250;28;20419;-76
2023/09/14 11:07:57;;;;;;;5.55;5.05;;;23.90;65.40;;;;;;5066293;28;20427;-77
2023/09/14 11:10:24;;;;;;;5.55;5.05;;;23.90;65.90;;;;;;5062878;28;20485;-76
2023/09/14 11:12:51;;;;;;;5.25;4.85;;;23.90;66.20;;;;;;5065198;28;20466;-75
2023/09/14 11:15:20;;;;;;;5.30;4.90;;;23.90;63.50;;;;;;5066319;28;20411;-75
2023/09/14 11:17:49;;;;;;;4.55;4.15;;;23.70;63.60;;;;;;5062785;28;20408;-76
2023/09/14 11:20:38;;;;;;;5.00;4.60;;;23.60;64.80;;;;;;5058185;28;20429;-77
2023/09/14 11:23:08;;;;;;;4.40;4.10;;;23.50;63.40;;;;;;5062440;28;20427;-76
2023/09/14 11:25:36;;;;;;;4.22;3.83;;;23.40;64.80;;;;;;5062134;28;20424;-74
2023/09/14 11:28:04;;;;;;;4.32;4.03;;;23.30;62.30;;;;;;5057472;28;20777;-76
2023/09/14 11:30:32;;;;;;;3.47;3.17;;;23.00;63.20;;;;;;5063953;28;20439;-75
2023/09/14 11:33:01;;;;;;;3.10;2.90;;;23.00;62.50;;;;;;5062926;28;20431;-74
2023/09/14 11:35:35;;;;;;;4.60;3.10;;;23.10;62.70;;;;;;5067911;28;20909;-74
2023/09/14 11:38:02;;;;;;;3.97;3.10;;;23.20;62.30;;;;;;5064543;28;21072;-73
2023/09/14 11:40:34;;;;;;;3.30;3.00;;;23.30;62.10;;;;;;5065412;28;20909;-74
2023/09/14 11:43:25;;;;;;;3.95;3.55;;;23.50;61.90;;;;;;5066829;28;20427;-70
2023/09/14 11:45:58;;;;;;;4.70;3.70;;;23.80;59.90;;;;;;5064089;28;21743;-68
2023/09/14 11:48:29;;;;;;;3.35;2.67;;;23.90;59.40;;;;;;5065457;28;20434;-71
2023/09/14 11:50:57;;;;;;;3.05;2.30;;;24.10;54.80;;;;;;5067001;28;21189;-71
2023/09/14 11:53:24;;;;;;;4.00;3.00;;;24.00;54.80;;;;;;5086634;28;20426;-73
2023/09/14 11:55:53;;;;;;;3.38;3.08;;;24.10;55.40;;;;;;5095407;28;20438;-74
2023/09/14 11:58:23;;;;;;;3.70;3.40;;;24.20;55.50;;;;;;5090006;28;20485;-74
2023/09/14 12:00:53;;;;;;;4.32;3.15;;;24.50;51.90;;;;;;5068085;28;20427;-73
2023/09/14 12:03:21;;;;;;;4.65;4.25;;;24.60;57.40;;;;;;5059475;28;20529;-69
2023/09/14 12:05:48;;;;;;;4.33;3.93;;;24.90;53.60;;;;;;5065715;28;20442;-75
2023/09/14 12:08:16;;;;;;;4.00;3.70;;;25.20;49.90;;;;;;5070158;28;20431;-73
2023/09/14 12:10:45;;;;;;;4.00;3.70;;;25.50;51.00;;;;;;5058395;28;20439;-74
2023/09/14 12:13:15;;;;;;;4.00;3.70;;;25.80;47.70;;;;;;5064159;28;20431;-74
2023/09/14 12:15:43;;;;;;;4.40;4.00;;;25.90;45.70;;;;;;5064799;28;20423;-75
2023/09/14 12:18:11;;;;;;;3.78;3.50;;;26.10;48.90;;;;;;5067218;28;20494;-73
2023/09/14 12:20:39;;;;;;;3.80;3.60;;;26.20;45.90;;;;;;5060363;28;21014;-71
2023/09/14 12:23:07;;;;;;;3.85;3.55;;;26.00;46.50;;;;;;5057826;28;20439;-73
2023/09/14 12:25:34;;;;;;;4.07;3.78;;;26.00;48.90;;;;;;5063944;28;20925;-73
2023/09/14 12:28:04;;;;;;;4.10;3.80;;;26.00;47.70;;;;;;5063306;28;20441;-71
2023/09/14 12:30:33;;;;;;;3.42;3.13;;;26.00;48.10;;;;;;5073989;28;20435;-72
2023/09/14 12:33:02;;;;;;;3.30;3.10;;;26.00;46.60;;;;;;5070396;28;20434;-71
2023/09/14 12:35:29;;;;;;;3.17;2.97;;;26.00;47.40;;;;;;5069858;28;20432;-72
2023/09/14 12:38:01;;;;;;;3.10;2.90;;;26.10;47.60;;;;;;5069730;28;20416;-71
2023/09/14 12:40:28;;;;;;;3.20;3.00;;;26.20;44.30;;;;;;5071163;28;20647;-71
2023/09/14 12:42:55;;;;;;;3.78;3.47;;;26.30;43.70;;;;;;5068046;28;20414;-71